createdAt,value
2017-07-23T00:01:59.411Z,8.30
2017-07-23T00:04:27.739Z,10.03
2017-07-23T00:06:55.252Z,7.40
2017-07-23T00:09:23.532Z,6.77
2017-07-23T00:11:51.853Z,6.93
2017-07-23T00:14:19.359Z,6.73
2017-07-23T00:16:46.875Z,6.80
2017-07-23T00:19:14.430Z,6.67
2017-07-23T00:21:41.941Z,5.07
2017-07-23T00:24:09.453Z,5.63
2017-07-23T00:26:37.012Z,6.20
2017-07-23T00:29:04.522Z,6.10
2017-07-23T00:31:32.062Z,5.57
2017-07-23T00:33:59.567Z,5.50
2017-07-23T00:36:27.125Z,6.00
2017-07-23T00:38:54.635Z,6.17
2017-07-23T00:41:22.143Z,5.20
2017-07-23T00:43:49.707Z,6.23
2017-07-23T00:46:17.232Z,5.47
2017-07-23T00:48:44.740Z,4.90
2017-07-23T00:51:12.305Z,5.17
2017-07-23T00:53:39.814Z,6.57
2017-07-23T00:56:07.320Z,7.13
2017-07-23T00:58:34.859Z,6.43
2017-07-23T01:01:02.368Z,5.60
2017-07-23T01:03:29.916Z,9.03
2017-07-23T01:05:57.433Z,6.73
2017-07-23T01:08:24.950Z,14.53
2017-07-23T01:10:52.516Z,7.80
2017-07-23T01:13:20.023Z,8.33
2017-07-23T01:15:47.545Z,7.93
2017-07-23T01:18:15.103Z,7.50
2017-07-23T01:20:42.635Z,6.40
2017-07-23T01:23:10.177Z,7.27
2017-07-23T01:25:37.744Z,6.90
2017-07-23T01:28:05.259Z,8.20
2017-07-23T01:30:32.776Z,9.97
2017-07-23T01:33:00.337Z,7.63
2017-07-23T01:35:27.851Z,6.97
2017-07-23T01:37:56.127Z,7.53
2017-07-23T01:40:23.703Z,7.33
2017-07-23T01:42:51.211Z,6.37
2017-07-23T01:45:18.713Z,5.90
2017-07-23T01:47:46.271Z,6.77
2017-07-23T01:50:14.581Z,6.73
2017-07-23T01:52:42.118Z,6.93
2017-07-23T01:55:09.647Z,6.97
2017-07-23T01:57:37.174Z,7.30
2017-07-23T02:00:04.699Z,6.40
2017-07-23T02:02:32.207Z,6.67
2017-07-23T02:04:59.750Z,6.03
2017-07-23T02:07:27.246Z,5.40
2017-07-23T02:09:54.782Z,6.33
2017-07-23T02:12:22.288Z,7.00
2017-07-23T02:14:50.584Z,7.80
2017-07-23T02:17:18.108Z,7.10
2017-07-23T02:19:45.644Z,7.20
2017-07-23T02:22:14.027Z,6.37
2017-07-23T02:24:41.596Z,6.73
2017-07-23T02:27:09.151Z,6.30
2017-07-23T02:29:36.669Z,5.90
2017-07-23T02:32:04.177Z,6.13
2017-07-23T02:34:31.702Z,5.03
2017-07-23T02:36:59.208Z,5.00
2017-07-23T02:39:26.751Z,6.53
2017-07-23T02:41:54.265Z,4.20
2017-07-23T02:44:22.441Z,3.33
2017-07-23T02:46:49.973Z,4.27
2017-07-23T02:49:17.483Z,4.87
2017-07-23T02:51:45.004Z,3.90
2017-07-23T02:54:12.519Z,3.87
2017-07-23T02:56:40.052Z,3.23
2017-07-23T02:59:07.560Z,3.03
2017-07-23T03:01:35.852Z,3.17
2017-07-23T03:04:04.124Z,2.83
2017-07-23T03:06:31.646Z,3.53
2017-07-23T03:08:59.159Z,3.50
2017-07-23T03:11:26.692Z,2.90
2017-07-23T03:13:55.019Z,4.13
2017-07-23T03:16:22.552Z,3.10
2017-07-23T03:18:50.102Z,2.90
2017-07-23T03:21:19.319Z,3.13
2017-07-23T03:23:46.824Z,2.73
2017-07-23T03:26:14.356Z,3.03
2017-07-23T03:28:41.867Z,3.00
2017-07-23T03:31:10.032Z,2.70
2017-07-23T03:33:37.548Z,2.60
2017-07-23T03:36:05.075Z,2.53
2017-07-23T03:38:33.406Z,3.17
2017-07-23T03:41:00.923Z,4.10
2017-07-23T03:43:28.456Z,3.10
2017-07-23T03:45:55.984Z,2.87
2017-07-23T03:48:23.523Z,3.00
2017-07-23T03:50:51.031Z,3.10
2017-07-23T03:53:18.592Z,3.03
2017-07-23T03:55:46.100Z,3.00
2017-07-23T03:58:13.619Z,3.03
2017-07-23T04:00:41.196Z,3.13
2017-07-23T04:03:09.467Z,3.23
2017-07-23T04:05:37.737Z,3.47
2017-07-23T04:08:06.025Z,3.60
2017-07-23T04:10:33.535Z,2.87
2017-07-23T04:13:01.063Z,3.60
2017-07-23T04:15:28.572Z,2.67
2017-07-23T04:17:56.139Z,3.20
2017-07-23T04:20:23.713Z,3.07
2017-07-23T04:22:51.987Z,3.13
2017-07-23T04:25:19.503Z,3.27
2017-07-23T04:27:47.040Z,2.57
2017-07-23T04:30:14.596Z,2.87
2017-07-23T04:32:42.124Z,2.87
2017-07-23T04:35:09.632Z,2.80
2017-07-23T04:37:37.164Z,2.80
2017-07-23T04:40:04.693Z,3.30
2017-07-23T04:42:32.205Z,2.53
2017-07-23T04:44:59.726Z,2.53
2017-07-23T04:47:27.258Z,2.53
2017-07-23T04:49:54.790Z,2.30
2017-07-23T04:52:22.330Z,2.23
2017-07-23T04:54:49.880Z,2.50
2017-07-23T04:57:18.160Z,2.87
2017-07-23T04:59:46.427Z,2.83
2017-07-23T05:02:14.723Z,2.30
2017-07-23T05:04:42.231Z,2.33
2017-07-23T05:07:09.752Z,2.30
2017-07-23T05:09:37.293Z,1.93
2017-07-23T05:12:04.809Z,2.00
2017-07-23T05:14:32.352Z,2.40
2017-07-23T05:16:59.900Z,2.13
2017-07-23T05:19:27.402Z,2.70
2017-07-23T05:21:54.959Z,1.93
2017-07-23T05:24:22.469Z,2.43
2017-07-23T05:26:50.208Z,2.37
2017-07-23T05:29:17.732Z,2.17
2017-07-23T05:31:45.245Z,2.37
2017-07-23T05:34:12.783Z,3.10
2017-07-23T05:36:41.062Z,2.70
2017-07-23T05:39:09.383Z,2.37
2017-07-23T05:41:36.912Z,2.20
2017-07-23T05:44:04.497Z,2.27
2017-07-23T05:46:32.009Z,1.90
2017-07-23T05:48:59.571Z,3.10
2017-07-23T05:51:27.102Z,2.43
2017-07-23T05:53:54.659Z,2.17
2017-07-23T05:56:22.197Z,2.20
2017-07-23T05:58:49.723Z,2.13
2017-07-23T06:01:18.052Z,2.23
2017-07-23T06:03:45.553Z,1.93
2017-07-23T06:06:13.869Z,1.97
2017-07-23T06:08:41.381Z,2.67
2017-07-23T06:11:08.919Z,2.40
2017-07-23T06:13:36.450Z,2.43
2017-07-23T06:16:03.972Z,2.00
2017-07-23T06:18:32.299Z,2.50
2017-07-23T06:20:59.810Z,2.70
2017-07-23T06:23:28.129Z,2.50
2017-07-23T06:25:55.652Z,2.47
2017-07-23T06:28:23.159Z,2.00
2017-07-23T06:30:50.695Z,2.20
2017-07-23T06:33:18.203Z,3.53
2017-07-23T06:35:45.726Z,2.97
2017-07-23T06:38:13.244Z,3.10
2017-07-23T06:40:41.552Z,3.00
2017-07-23T06:43:09.084Z,2.50
2017-07-23T06:45:37.383Z,2.63
2017-07-23T06:48:04.909Z,2.73
2017-07-23T06:50:32.470Z,2.73
2017-07-23T06:52:59.975Z,2.40
2017-07-23T06:55:27.500Z,2.77
2017-07-23T06:57:55.037Z,3.20
2017-07-23T07:00:22.574Z,6.00
2017-07-23T07:02:50.104Z,3.13
2017-07-23T07:05:17.639Z,3.20
2017-07-23T07:07:45.912Z,3.43
2017-07-23T07:10:14.210Z,3.10
2017-07-23T07:12:42.481Z,2.93
2017-07-23T07:15:20.708Z,2.97
2017-07-23T07:17:48.236Z,3.43
2017-07-23T07:20:15.748Z,3.50
2017-07-23T07:22:43.281Z,2.80
2017-07-23T07:25:10.800Z,3.33
2017-07-23T07:27:38.327Z,3.27
2017-07-23T07:30:05.836Z,3.20
2017-07-23T07:32:34.122Z,3.80
2017-07-23T07:35:02.407Z,3.60
2017-07-23T07:37:30.728Z,3.00
2017-07-23T07:40:01.271Z,3.40
2017-07-23T07:42:28.813Z,2.97
2017-07-23T07:44:56.328Z,3.10
2017-07-23T07:47:23.963Z,5.70
2017-07-23T07:49:51.552Z,3.27
2017-07-23T07:52:19.899Z,3.10
2017-07-23T07:54:47.486Z,3.27
2017-07-23T07:57:15.829Z,4.87
2017-07-23T07:59:43.376Z,3.03
2017-07-23T08:02:10.960Z,3.80
2017-07-23T08:04:38.565Z,3.57
2017-07-23T08:07:06.170Z,3.80
2017-07-23T08:09:33.746Z,3.70
2017-07-23T08:12:02.100Z,3.60
2017-07-23T08:14:29.681Z,3.60
2017-07-23T08:16:58.080Z,4.17
2017-07-23T08:19:26.425Z,4.37
2017-07-23T08:21:54.040Z,3.70
2017-07-23T08:24:21.590Z,4.03
2017-07-23T08:26:49.963Z,5.63
2017-07-23T08:29:18.256Z,5.17
2017-07-23T08:31:46.594Z,5.20
2017-07-23T08:34:14.108Z,6.30
2017-07-23T08:36:42.429Z,6.07
2017-07-23T08:39:10.029Z,5.23
2017-07-23T08:41:37.579Z,5.07
2017-07-23T08:44:10.954Z,6.37
2017-07-23T08:46:38.632Z,4.70
2017-07-23T08:49:06.231Z,5.13
2017-07-23T08:51:33.775Z,5.63
2017-07-23T08:54:02.094Z,5.40
2017-07-23T08:56:29.681Z,6.10
2017-07-23T08:58:57.228Z,6.00
2017-07-23T09:01:24.792Z,5.80
2017-07-23T09:03:52.316Z,5.80
2017-07-23T09:06:19.856Z,5.00
2017-07-23T09:08:48.168Z,5.40
2017-07-23T09:11:15.763Z,5.83
2017-07-23T09:13:43.279Z,8.90
2017-07-23T09:16:10.830Z,6.67
2017-07-23T09:18:38.380Z,5.80
2017-07-23T09:21:05.944Z,6.23
2017-07-23T09:23:34.239Z,5.50
2017-07-23T09:26:01.784Z,5.63
2017-07-23T09:28:29.350Z,5.70
2017-07-23T09:30:56.872Z,4.97
2017-07-23T09:33:24.443Z,5.33
2017-07-23T09:35:51.964Z,5.20
2017-07-23T09:38:19.501Z,5.20
2017-07-23T09:40:47.019Z,5.40
2017-07-23T09:43:14.580Z,4.90
2017-07-23T09:45:42.220Z,5.40
2017-07-23T09:48:09.765Z,5.50
2017-07-23T09:50:37.290Z,7.67
2017-07-23T09:53:04.823Z,4.93
2017-07-23T09:55:33.123Z,5.40
2017-07-23T09:58:04.368Z,4.90
2017-07-23T10:00:32.135Z,5.47
2017-07-23T10:03:04.639Z,5.70
2017-07-23T10:05:32.201Z,5.63
2017-07-23T10:07:59.756Z,5.57
2017-07-23T10:10:27.267Z,7.80
2017-07-23T10:12:54.816Z,5.80
2017-07-23T10:15:22.352Z,5.33
2017-07-23T10:17:50.707Z,5.07
2017-07-23T10:20:18.278Z,5.17
2017-07-23T10:22:45.853Z,4.50
2017-07-23T10:25:13.370Z,4.70
2017-07-23T10:27:41.667Z,7.30
2017-07-23T10:30:09.344Z,5.27
2017-07-23T10:32:36.893Z,5.10
2017-07-23T10:35:04.452Z,5.43
2017-07-23T10:37:31.967Z,4.83
2017-07-23T10:39:59.472Z,5.53
2017-07-23T10:42:27.031Z,5.17
2017-07-23T10:44:54.565Z,5.53
2017-07-23T10:47:22.850Z,7.47
2017-07-23T10:49:50.395Z,5.90
2017-07-23T10:52:18.702Z,5.03
2017-07-23T10:54:46.232Z,5.00
2017-07-23T10:57:13.741Z,4.70
2017-07-23T10:59:41.278Z,4.83
2017-07-23T11:02:08.792Z,4.77
2017-07-23T11:04:36.339Z,4.87
2017-07-23T11:07:03.850Z,5.20
2017-07-23T11:09:31.356Z,4.80
2017-07-23T11:11:58.881Z,4.60
2017-07-23T11:14:26.391Z,4.23
2017-07-23T11:16:53.918Z,4.40
2017-07-23T11:19:21.456Z,4.53
2017-07-23T11:21:48.980Z,4.77
2017-07-23T11:24:16.512Z,5.00
2017-07-23T11:26:44.030Z,4.50
2017-07-23T11:29:11.599Z,4.33
2017-07-23T11:31:39.112Z,4.60
2017-07-23T11:34:06.623Z,4.30
2017-07-23T11:36:34.148Z,4.63
2017-07-23T11:39:02.459Z,5.47
2017-07-23T11:41:29.979Z,4.97
2017-07-23T11:43:57.539Z,4.33
2017-07-23T11:46:25.055Z,4.67
2017-07-23T11:48:52.564Z,4.30
2017-07-23T11:51:21.320Z,4.40
2017-07-23T11:53:48.832Z,4.60
2017-07-23T11:56:17.134Z,4.50
2017-07-23T11:58:44.659Z,4.43
2017-07-23T12:01:12.979Z,5.00
2017-07-23T12:03:40.512Z,4.47
2017-07-23T12:06:08.113Z,4.53
2017-07-23T12:08:35.637Z,4.80
2017-07-23T12:11:03.192Z,4.70
2017-07-23T12:13:30.719Z,4.87
2017-07-23T12:16:05.377Z,5.40
2017-07-23T12:18:33.101Z,4.40
2017-07-23T12:21:00.666Z,4.93
2017-07-23T12:23:28.175Z,4.70
2017-07-23T12:25:55.719Z,5.73
2017-07-23T12:28:23.247Z,4.97
2017-07-23T12:30:50.760Z,5.47
2017-07-23T12:33:18.288Z,4.80
2017-07-23T12:35:46.572Z,4.67
2017-07-23T12:38:14.876Z,5.13
2017-07-23T12:40:42.869Z,4.30
2017-07-23T12:43:10.402Z,5.67
2017-07-23T12:45:37.923Z,5.33
2017-07-23T12:48:05.499Z,5.10
2017-07-23T12:50:33.780Z,4.90
2017-07-23T12:53:01.287Z,5.23
2017-07-23T12:55:28.815Z,5.20
2017-07-23T12:57:56.332Z,4.43
2017-07-23T13:00:23.875Z,5.90
2017-07-23T13:02:52.260Z,4.80
2017-07-23T13:05:19.825Z,5.20
2017-07-23T13:07:47.335Z,5.50
2017-07-23T13:10:14.843Z,5.27
2017-07-23T13:12:42.371Z,4.70
2017-07-23T13:15:09.961Z,5.60
2017-07-23T13:17:37.472Z,7.73
2017-07-23T13:20:04.981Z,4.90
2017-07-23T13:22:32.508Z,5.37
2017-07-23T13:25:00.029Z,5.73
2017-07-23T13:27:28.324Z,6.57
2017-07-23T13:29:55.836Z,5.57
2017-07-23T13:32:23.369Z,6.10
2017-07-23T13:34:50.906Z,5.90
2017-07-23T13:37:18.417Z,5.53
2017-07-23T13:39:46.890Z,5.30
2017-07-23T13:42:14.449Z,4.97
2017-07-23T13:44:41.959Z,5.60
2017-07-23T13:47:10.248Z,5.97
2017-07-23T13:49:37.799Z,5.93
2017-07-23T13:52:05.311Z,5.63
2017-07-23T13:54:32.824Z,6.07
2017-07-23T13:57:00.365Z,6.70
2017-07-23T13:59:28.647Z,5.23
2017-07-23T14:01:56.951Z,4.80
2017-07-23T14:04:24.503Z,5.20
2017-07-23T14:06:52.055Z,5.63
2017-07-23T14:09:19.571Z,5.00
2017-07-23T14:11:47.081Z,5.13
2017-07-23T14:14:14.616Z,4.70
2017-07-23T14:16:42.927Z,5.00
2017-07-23T14:19:10.438Z,4.80
2017-07-23T14:21:38.013Z,5.47
2017-07-23T14:24:06.302Z,4.77
2017-07-23T14:26:33.807Z,5.07
2017-07-23T14:29:02.112Z,4.93
2017-07-23T14:31:29.700Z,5.17
2017-07-23T14:33:59.066Z,5.17
2017-07-23T14:36:26.576Z,5.13
2017-07-23T14:38:54.087Z,5.33
2017-07-23T14:41:21.647Z,5.60
2017-07-23T14:43:49.165Z,5.53
2017-07-23T14:46:16.683Z,5.00
2017-07-23T14:48:44.211Z,5.00
2017-07-23T14:51:11.728Z,4.90
2017-07-23T14:53:39.254Z,5.33
2017-07-23T14:56:06.811Z,6.63
2017-07-23T14:58:34.326Z,6.50
2017-07-23T15:01:01.831Z,7.23
2017-07-23T15:03:29.355Z,5.23
2017-07-23T15:05:56.905Z,6.37
2017-07-23T15:08:24.420Z,5.53
2017-07-23T15:10:51.971Z,5.50
2017-07-23T15:13:19.480Z,5.60
2017-07-23T15:15:47.010Z,4.77
2017-07-23T15:18:15.632Z,5.27
2017-07-23T15:20:43.148Z,5.67
2017-07-23T15:23:10.650Z,6.17
2017-07-23T15:25:38.176Z,5.10
2017-07-23T15:28:06.463Z,5.37
2017-07-23T15:30:33.991Z,6.07
2017-07-23T15:33:01.504Z,6.07
2017-07-23T15:35:29.043Z,4.83
2017-07-23T15:37:57.346Z,5.87
2017-07-23T15:40:24.863Z,6.20
2017-07-23T15:42:53.160Z,5.50
2017-07-23T15:45:20.683Z,5.17
2017-07-23T15:47:48.208Z,5.70
2017-07-23T15:50:15.715Z,5.90
2017-07-23T15:52:43.249Z,4.97
2017-07-23T15:55:10.761Z,6.10
2017-07-23T15:57:38.286Z,6.20
2017-07-23T16:00:05.792Z,8.53
2017-07-23T16:02:33.323Z,5.57
2017-07-23T16:05:01.608Z,5.70
2017-07-23T16:07:29.216Z,5.83
2017-07-23T16:09:56.735Z,5.93
2017-07-23T16:12:25.016Z,6.17
2017-07-23T16:14:52.597Z,5.77
2017-07-23T16:17:20.113Z,5.37
2017-07-23T16:19:48.427Z,9.00
2017-07-23T16:22:15.936Z,9.27
2017-07-23T16:24:43.496Z,7.27
2017-07-23T16:27:11.013Z,6.27
2017-07-23T16:29:38.530Z,5.83
2017-07-23T16:32:06.072Z,5.93
2017-07-23T16:34:33.607Z,5.97
2017-07-23T16:37:01.159Z,5.77
2017-07-23T16:39:28.671Z,6.20
2017-07-23T16:41:56.948Z,6.10
2017-07-23T16:44:25.259Z,5.83
2017-07-23T16:46:52.774Z,6.60
2017-07-23T16:49:20.305Z,6.10
2017-07-23T16:51:47.828Z,5.60
2017-07-23T16:54:15.648Z,6.43
2017-07-23T16:56:43.190Z,5.93
2017-07-23T16:59:10.719Z,6.83
2017-07-23T17:01:38.226Z,6.27
2017-07-23T17:04:05.759Z,5.57
2017-07-23T17:06:33.280Z,5.70
2017-07-23T17:09:01.572Z,6.20
2017-07-23T17:11:29.077Z,5.80
2017-07-23T17:13:56.609Z,6.10
2017-07-23T17:16:24.134Z,5.43
2017-07-23T17:18:52.421Z,5.70
2017-07-23T17:21:20.729Z,6.27
2017-07-23T17:23:48.260Z,5.73
2017-07-23T17:26:15.771Z,6.30
2017-07-23T17:28:43.304Z,6.40
2017-07-23T17:31:10.815Z,5.30
2017-07-23T17:33:38.347Z,5.80
2017-07-23T17:36:05.875Z,6.20
2017-07-23T17:38:33.387Z,6.03
2017-07-23T17:41:00.935Z,6.40
2017-07-23T17:43:28.465Z,6.10
2017-07-23T17:45:55.975Z,5.97
2017-07-23T17:48:23.520Z,6.20
2017-07-23T17:50:51.023Z,5.90
2017-07-23T17:53:18.576Z,7.77
2017-07-23T17:55:46.096Z,6.07
2017-07-23T17:58:13.616Z,6.37
2017-07-23T18:00:41.146Z,5.47
2017-07-23T18:03:09.419Z,6.70
2017-07-23T18:05:36.968Z,6.17
2017-07-23T18:08:04.498Z,6.43
2017-07-23T18:10:32.007Z,6.10
2017-07-23T18:13:00.300Z,6.03
2017-07-23T18:15:27.812Z,6.67
2017-07-23T18:17:55.349Z,5.70
2017-07-23T18:20:22.877Z,5.90
2017-07-23T18:22:50.391Z,6.10
2017-07-23T18:25:17.927Z,7.00
2017-07-23T18:27:45.449Z,5.57
2017-07-23T18:30:12.979Z,6.90
2017-07-23T18:32:40.564Z,6.93
2017-07-23T18:35:08.844Z,6.50
2017-07-23T18:37:37.117Z,7.13
2017-07-23T18:40:05.426Z,6.00
2017-07-23T18:42:33.019Z,5.30
2017-07-23T18:45:00.524Z,7.00
2017-07-23T18:47:28.804Z,7.10
2017-07-23T18:49:56.347Z,6.33
2017-07-23T18:52:24.648Z,6.57
2017-07-23T18:54:52.214Z,6.67
2017-07-23T18:57:19.728Z,5.90
2017-07-23T18:59:47.239Z,6.73
2017-07-23T19:02:14.759Z,6.20
2017-07-23T19:04:42.268Z,7.33
2017-07-23T19:07:09.886Z,7.10
2017-07-23T19:09:37.498Z,6.03
2017-07-23T19:12:05.017Z,6.43
2017-07-23T19:14:32.530Z,6.20
2017-07-23T19:17:00.059Z,6.43
2017-07-23T19:19:27.576Z,7.10
2017-07-23T19:21:55.880Z,6.73
2017-07-23T19:24:23.396Z,6.20
2017-07-23T19:26:50.925Z,6.77
2017-07-23T19:29:18.451Z,6.20
2017-07-23T19:31:46.732Z,6.73
2017-07-23T19:34:14.263Z,6.40
2017-07-23T19:36:41.783Z,7.80
2017-07-23T19:39:09.315Z,6.37
2017-07-23T19:41:36.820Z,7.20
2017-07-23T19:44:04.327Z,5.70
2017-07-23T19:46:31.897Z,7.03
2017-07-23T19:48:59.403Z,7.70
2017-07-23T19:51:26.932Z,6.60
2017-07-23T19:53:54.457Z,6.30
2017-07-23T19:56:22.770Z,6.83
2017-07-23T19:58:50.283Z,7.47
2017-07-23T20:01:17.827Z,6.23
2017-07-23T20:03:45.353Z,6.83
2017-07-23T20:06:12.865Z,7.17
2017-07-23T20:08:40.412Z,8.07
2017-07-23T20:11:07.934Z,6.50
2017-07-23T20:13:35.496Z,6.63
2017-07-23T20:16:03.046Z,8.80
2017-07-23T20:18:30.583Z,8.40
2017-07-23T20:20:58.874Z,7.27
2017-07-23T20:23:26.379Z,8.27
2017-07-23T20:25:53.907Z,7.47
2017-07-23T20:28:21.420Z,7.27
2017-07-23T20:30:49.737Z,8.07
2017-07-23T20:33:17.281Z,9.20
2017-07-23T20:35:44.812Z,9.43
2017-07-23T20:38:12.326Z,9.10
2017-07-23T20:40:39.860Z,9.33
2017-07-23T20:43:07.366Z,8.13
2017-07-23T20:45:34.908Z,9.10
2017-07-23T20:48:02.455Z,8.97
2017-07-23T20:50:29.969Z,8.77
2017-07-23T20:52:57.520Z,7.33
2017-07-23T20:55:25.268Z,8.60
2017-07-23T20:57:52.784Z,9.23
2017-07-23T21:00:20.307Z,8.90
2017-07-23T21:02:47.820Z,9.97
2017-07-23T21:05:15.660Z,8.43
2017-07-23T21:07:43.219Z,9.80
2017-07-23T21:10:10.774Z,10.70
2017-07-23T21:12:38.292Z,9.43
2017-07-23T21:15:05.829Z,8.70
2017-07-23T21:17:33.340Z,10.00
2017-07-23T21:20:00.892Z,9.33
2017-07-23T21:22:28.410Z,9.77
2017-07-23T21:24:55.944Z,9.33
2017-07-23T21:27:24.215Z,9.13
2017-07-23T21:29:52.521Z,9.87
2017-07-23T21:32:20.060Z,10.30
2017-07-23T21:34:47.573Z,11.57
2017-07-23T21:37:15.108Z,9.60
2017-07-23T21:39:42.640Z,9.43
2017-07-23T21:42:10.963Z,9.47
2017-07-23T21:44:38.494Z,9.80
2017-07-23T21:47:06.011Z,11.97
2017-07-23T21:49:33.576Z,11.17
2017-07-23T21:52:01.088Z,10.97
2017-07-23T21:54:28.599Z,9.70
2017-07-23T21:56:56.136Z,10.43
2017-07-23T21:59:23.649Z,9.43
2017-07-23T22:01:51.188Z,10.27
2017-07-23T22:04:19.496Z,9.90
2017-07-23T22:06:47.020Z,8.90
2017-07-23T22:09:15.320Z,10.00
2017-07-23T22:11:42.837Z,10.73
2017-07-23T22:14:10.409Z,9.97
2017-07-23T22:16:37.929Z,11.40
2017-07-23T22:19:05.460Z,12.47
2017-07-23T22:21:33.026Z,10.47
2017-07-23T22:24:00.536Z,10.43
2017-07-23T22:26:28.066Z,10.60
2017-07-23T22:28:55.583Z,10.50
2017-07-23T22:31:23.879Z,10.90
2017-07-23T22:33:51.407Z,9.53
2017-07-23T22:36:18.931Z,11.77
2017-07-23T22:38:46.473Z,10.97
2017-07-23T22:41:13.983Z,10.50
2017-07-23T22:43:41.534Z,10.63
2017-07-23T22:46:09.046Z,10.53
2017-07-23T22:48:36.567Z,10.23
2017-07-23T22:51:04.100Z,11.07
2017-07-23T22:53:31.668Z,11.50
2017-07-23T22:55:59.217Z,11.27
2017-07-23T22:58:26.728Z,9.33
2017-07-23T23:00:55.019Z,10.10
2017-07-23T23:03:22.542Z,10.63
2017-07-23T23:05:50.076Z,9.63
2017-07-23T23:08:17.591Z,10.67
2017-07-23T23:10:45.123Z,10.70
2017-07-23T23:13:12.642Z,10.90
2017-07-23T23:15:40.177Z,9.87
2017-07-23T23:18:07.689Z,8.60
2017-07-23T23:20:35.224Z,9.67
2017-07-23T23:23:02.731Z,9.77
2017-07-23T23:25:30.280Z,10.00
2017-07-23T23:27:57.789Z,9.80
2017-07-23T23:30:25.331Z,10.13
2017-07-23T23:32:52.843Z,10.07
2017-07-23T23:35:20.378Z,10.30
2017-07-23T23:37:47.891Z,10.47
2017-07-23T23:40:16.200Z,10.10
2017-07-23T23:42:43.720Z,11.17
2017-07-23T23:45:11.251Z,10.43
2017-07-23T23:47:38.764Z,10.20
2017-07-23T23:50:06.505Z,9.63
2017-07-23T23:52:34.825Z,9.87
2017-07-23T23:55:02.355Z,9.60
2017-07-23T23:57:30.628Z,10.60
2017-07-23T23:59:59.170Z,11.67
